Ashland, Wisconsin
Current Conditions -  °F | °C
As of 12:44 AM on Monday 24 Nov 2014 (Local Time) from KASX Reporting Station
Haze Haze  
Wind Chill: 32°   Ceiling: 500
Heat Index: 36°   Visibility: 2.5mi
Dew Point: 36°   Wind: 5mph
Humidity: 100%   Direction: 320°NW
Pressure: 29.23"   Gusts: NA
Location:  46.59°N, 90.89°W
Report Text: KASX 240644Z AUTO 32004KT 2 1/2SM BR OVC005 02/02 A2923 RMK AO2 UPE22 P0001 T00220022
Loading
Personal Weather Stations






























Interactive Weather Map New forecast layout! Learn more

10-Day Weather Forecast

Advertisements
Track Severe Weather on mobile